Dades meteomassalio
Diari Summary for Gener 3, 2018 Units:  English    Metric   Both
« Previous Day
Next Day »
Diari Semanal Mensual Anual Personalitzat
  Maxima: Minima: Mijana:
Temperatura: TemperatureC °F 8.9 °F 14.2 °F
Rosada: DewpointC °F 3.8 °F 8 °F
Humitat: Humidity % 54 % 66 %
Velocitat del vent: WindSpeedKMH mph 0.0 mph 24.5 mph
Racha vent: WindSpeedGustKMH mph - -
Vent:- - WNW
Pressio: PressurehPa in 1027.0 in -
Pluja: 0.0 in    
Historical Graphs
 
 
Tabular Data for Gener 3, 2018
Time Temperature Dew Point Pressure Wind Wind Speed Wind Gust Humidity Rainfall Rate (Hourly) solar Conditions
TemperatureC °F DewpointC °F PressurehPa in Calm     Humidity % HourlyPrecipMM in SolarRadiationWatts/m^2 W/m2 Conditions
00:04 12.2 °F 7.1 °F 1030.4 in West 3.7 mph 3.7 mph 71 % 0.0 in 0.0 W/m2 CLR
00:09 11.7 °F 7.0 °F 1030.0 in WNW 20.4 mph 20.4 mph 73 % 0.0 in 0.0 W/m2 CLR
00:14 11.7 °F 7.0 °F 1030.0 in West 19.3 mph 19.3 mph 73 % 0.0 in 0.0 W/m2 CLR
00:20 11.7 °F 7.0 °F 1030.0 in WNW 18.5 mph 18.5 mph 73 % 0.0 in 0.0 W/m2 CLR
00:23 11.7 °F 6.8 °F 1030.0 in WNW 22.2 mph 22.2 mph 72 % 0.0 in 0.0 W/m2 CLR
00:28 11.7 °F 6.8 °F 1030.0 in WNW 18.5 mph 18.5 mph 72 % 0.0 in 0.0 W/m2 CLR
00:30 11.7 °F 6.8 °F 1030.0 in West 29.6 mph 29.6 mph 72 % 0.0 in 0.0 W/m2 CLR
00:32 11.7 °F 6.6 °F 1030.0 in WNW 22.2 mph 22.2 mph 71 % 0.0 in 0.0 W/m2 CLR
00:36 12.2 °F 7.1 °F 1030.0 in NW 27.8 mph 27.8 mph 71 % 0.0 in 0.0 W/m2 CLR
00:41 12.2 °F 7.1 °F 1030.0 in WNW 22.5 mph 22.8 mph 71 % 0.0 in 0.0 W/m2 CLR
00:50 12.8 °F 7.4 °F 1030.0 in WNW 22.2 mph 22.2 mph 70 % 0.0 in 0.0 W/m2 CLR
00:55 12.8 °F 7.2 °F 1030.0 in NW 27.8 mph 27.8 mph 69 % 0.0 in 0.0 W/m2 CLR
01:00 12.2 °F 6.7 °F 1029.7 in WNW 31.5 mph 31.5 mph 69 % 0.0 in 0.0 W/m2 CLR
01:01 12.2 °F 6.7 °F 1029.7 in WNW 31.5 mph 31.5 mph 69 % 0.0 in 0.0 W/m2 CLR
01:06 12.2 °F 6.7 °F 1029.7 in NW 31.5 mph 31.5 mph 69 % 0.0 in 0.0 W/m2 CLR
01:07 12.2 °F 6.5 °F 1030.0 in WNW 27.4 mph 27.4 mph 68 % 0.0 in 0.0 W/m2 CLR
01:12 12.8 °F 7.0 °F 1030.0 in NW 27.8 mph 27.8 mph 68 % 0.0 in 0.0 W/m2 CLR
01:17 12.8 °F 7.0 °F 1029.7 in NW 25.9 mph 25.9 mph 68 % 0.0 in 0.0 W/m2 CLR
01:18 12.8 °F 7.0 °F 1029.7 in WNW 29.6 mph 29.6 mph 68 % 0.0 in 0.0 W/m2 CLR
01:19 12.8 °F 7.0 °F 1030.0 in NW 29.6 mph 29.6 mph 68 % 0.0 in 0.0 W/m2 CLR
01:24 12.8 °F 7.0 °F 1029.7 in WNW 27.8 mph 27.8 mph 68 % 0.0 in 0.0 W/m2 CLR
01:28 12.8 °F 7.0 °F 1030.0 in NW 27.8 mph 27.8 mph 68 % 0.0 in 0.0 W/m2 CLR
01:30 13.3 °F 7.6 °F 1030.0 in WNW 27.8 mph 27.8 mph 68 % 0.0 in 0.0 W/m2 CLR
01:35 13.3 °F 7.6 °F 1029.7 in WNW 27.8 mph 27.8 mph 68 % 0.0 in 0.0 W/m2 CLR
01:37 13.3 °F 7.6 °F 1029.7 in NW 24.1 mph 24.1 mph 68 % 0.0 in 0.0 W/m2 CLR
01:40 12.8 °F 7.0 °F 1029.7 in West 24.1 mph 24.1 mph 68 % 0.0 in 0.0 W/m2 CLR
01:45 12.8 °F 7.0 °F 1029.7 in WNW 24.1 mph 24.1 mph 68 % 0.0 in 0.0 W/m2 CLR
01:48 12.8 °F 7.2 °F 1029.7 in WNW 24.1 mph 24.1 mph 69 % 0.0 in 0.0 W/m2 CLR
01:53 12.2 °F 6.5 °F 1029.7 in WNW 22.2 mph 22.2 mph 68 % 0.0 in 0.0 W/m2 CLR
01:55 12.2 °F 6.5 °F 1029.7 in WNW 20.4 mph 20.4 mph 68 % 0.0 in 0.0 W/m2 CLR
02:00 12.2 °F 6.5 °F 1029.7 in WNW 16.7 mph 16.7 mph 68 % 0.0 in 0.0 W/m2 CLR
02:01 12.2 °F 6.5 °F 1029.7 in WNW 19.3 mph 19.3 mph 68 % 0.0 in 0.0 W/m2 CLR
02:06 12.2 °F 6.7 °F 1029.7 in WNW 18.5 mph 18.5 mph 69 % 0.0 in 0.0 W/m2 CLR
02:09 12.2 °F 6.7 °F 1029.7 in WNW 22.2 mph 22.2 mph 69 % 0.0 in 0.0 W/m2 CLR
02:12 12.2 °F 6.7 °F 1029.7 in WNW 20.4 mph 20.4 mph 69 % 0.0 in 0.0 W/m2 CLR
02:14 12.2 °F 6.7 °F 1029.7 in WNW 22.2 mph 22.2 mph 69 % 0.0 in 0.0 W/m2 CLR
02:19 12.2 °F 6.7 °F 1029.7 in NW 20.9 mph 20.9 mph 69 % 0.0 in 0.0 W/m2 CLR
02:20 11.7 °F 6.4 °F 1029.7 in NW 22.2 mph 22.2 mph 70 % 0.0 in 0.0 W/m2 CLR
02:21 11.7 °F 6.4 °F 1029.7 in NW 24.1 mph 24.1 mph 70 % 0.0 in 0.0 W/m2 CLR
02:27 11.7 °F 6.4 °F 1029.7 in NW 27.8 mph 27.8 mph 70 % 0.0 in 0.0 W/m2 CLR
02:28 11.7 °F 6.4 °F 1029.7 in WNW 29.6 mph 29.6 mph 70 % 0.0 in 0.0 W/m2 CLR
02:33 12.2 °F 6.9 °F 1029.7 in WNW 22.2 mph 22.2 mph 70 % 0.0 in 0.0 W/m2 CLR
02:38 12.8 °F 7.4 °F 1029.7 in WNW 25.7 mph 25.7 mph 70 % 0.0 in 0.0 W/m2 CLR
02:39 12.8 °F 7.4 °F 1029.7 in NW 22.2 mph 22.2 mph 70 % 0.0 in 0.0 W/m2 CLR
02:44 12.8 °F 7.4 °F 1029.3 in WNW 22.2 mph 22.2 mph 70 % 0.0 in 0.0 W/m2 CLR
02:48 12.8 °F 7.4 °F 1029.7 in WNW 25.9 mph 25.9 mph 70 % 0.0 in 0.0 W/m2 CLR
02:50 12.8 °F 7.4 °F 1029.7 in WNW 24.1 mph 24.1 mph 70 % 0.0 in 0.0 W/m2 CLR
02:54 12.2 °F 6.9 °F 1029.7 in WNW 27.8 mph 27.8 mph 70 % 0.0 in 0.0 W/m2 CLR
02:55 12.2 °F 6.9 °F 1029.7 in NW 31.5 mph 31.5 mph 70 % 0.0 in 0.0 W/m2 CLR
03:00 12.8 °F 7.4 °F 1029.7 in West 25.9 mph 25.9 mph 70 % 0.0 in 0.0 W/m2 CLR
03:03 12.8 °F 7.4 °F 1029.7 in West 29.6 mph 29.6 mph 70 % 0.0 in 0.0 W/m2 CLR
03:13 12.8 °F 7.4 °F 1029.7 in NW 22.5 mph 22.5 mph 70 % 0.0 in 0.0 W/m2 CLR
03:15 12.8 °F 7.4 °F 1029.7 in NW 24.1 mph 24.1 mph 70 % 0.0 in 0.0 W/m2 CLR
03:16 12.8 °F 7.4 °F 1029.7 in West 25.9 mph 25.9 mph 70 % 0.0 in 0.0 W/m2 CLR
03:20 12.8 °F 7.4 °F 1029.7 in WNW 25.9 mph 25.9 mph 70 % 0.0 in 0.0 W/m2 CLR
03:23 12.8 °F 7.4 °F 1029.7 in NW 18.5 mph 18.5 mph 70 % 0.0 in 0.0 W/m2 CLR
03:25 12.8 °F 7.4 °F 1029.7 in NW 20.4 mph 20.4 mph 70 % 0.0 in 0.0 W/m2 CLR
03:30 12.8 °F 7.4 °F 1029.7 in WNW 20.4 mph 20.4 mph 70 % 0.0 in 0.0 W/m2 CLR
03:31 12.8 °F 7.7 °F 1029.7 in WNW 20.4 mph 20.4 mph 71 % 0.0 in 0.0 W/m2 CLR
03:37 12.2 °F 7.1 °F 1029.7 in NW 18.5 mph 18.5 mph 71 % 0.0 in 0.0 W/m2 CLR
03:42 11.7 °F 6.6 °F 1029.7 in WNW 14.8 mph 14.8 mph 71 % 0.0 in 0.0 W/m2 CLR
03:44 11.7 °F 6.6 °F 1029.7 in NW 16.7 mph 16.7 mph 71 % 0.0 in 0.0 W/m2 CLR
03:48 11.7 °F 6.8 °F 1029.7 in WNW 16.7 mph 16.7 mph 72 % 0.0 in 0.0 W/m2 CLR
03:53 11.1 °F 6.3 °F 1029.7 in WNW 13.0 mph 13.0 mph 72 % 0.0 in 0.0 W/m2 CLR
03:54 11.1 °F 6.3 °F 1029.7 in WNW 13.0 mph 13.0 mph 72 % 0.0 in 0.0 W/m2 CLR
03:59 11.1 °F 6.3 °F 1029.7 in Calm     72 % 0.0 in 0.0 W/m2 CLR
04:01 11.1 °F 6.3 °F 1029.7 in WNW 9.3 mph 9.3 mph 72 % 0.0 in 0.0 W/m2 CLR
04:02 11.1 °F 6.4 °F 1029.7 in Calm     73 % 0.0 in 0.0 W/m2 CLR
04:08 10.6 °F 5.9 °F 1029.7 in West 1.9 mph 1.9 mph 73 % 0.0 in 0.0 W/m2 CLR
04:13 10.0 °F 5.6 °F 1030.0 in Calm     74 % 0.0 in 0.0 W/m2 CLR
04:14 9.4 °F 5.1 °F 1030.0 in WNW 3.7 mph 3.7 mph 74 % 0.0 in 0.0 W/m2 CLR
04:19 8.9 °F 4.5 °F 1030.0 in West 5.6 mph 5.6 mph 74 % 0.0 in 0.0 W/m2 CLR
04:24 8.9 °F 4.7 °F 1030.0 in WNW 5.6 mph 5.6 mph 75 % 0.0 in 0.0 W/m2 CLR
04:30 8.9 °F 4.7 °F 1029.7 in West 9.3 mph 9.3 mph 75 % 0.0 in 0.0 W/m2 CLR
04:35 8.9 °F 4.9 °F 1029.7 in WNW 11.1 mph 11.1 mph 76 % 0.0 in 0.0 W/m2 CLR
04:36 9.4 °F 5.4 °F 1029.7 in West 8.0 mph 8.0 mph 76 % 0.0 in 0.0 W/m2 CLR
04:41 10.0 °F 5.9 °F 1029.7 in WNW 14.8 mph 14.8 mph 76 % 0.0 in 0.0 W/m2 CLR
04:46 10.0 °F 6.2 °F 1029.3 in WNW 16.7 mph 16.7 mph 77 % 0.0 in 0.0 W/m2 CLR
04:47 9.4 °F 5.6 °F 1029.3 in WNW 16.7 mph 16.7 mph 77 % 0.0 in 0.0 W/m2 CLR
04:48 9.4 °F 5.6 °F 1029.3 in WNW 18.5 mph 18.5 mph 77 % 0.0 in 0.0 W/m2 CLR
04:53 9.4 °F 5.4 °F 1029.3 in WNW 18.5 mph 18.5 mph 76 % 0.0 in 0.0 W/m2 CLR
04:57 9.4 °F 5.4 °F 1029.3 in NW 18.5 mph 18.5 mph 76 % 0.0 in 0.0 W/m2 CLR
04:59 9.4 °F 5.4 °F 1029.3 in WNW 14.8 mph 14.8 mph 76 % 0.0 in 0.0 W/m2 CLR
05:04 9.4 °F 5.2 °F 1029.3 in NW 16.7 mph 16.7 mph 75 % 0.0 in 0.0 W/m2 CLR
05:09 9.4 °F 5.2 °F 1029.3 in WNW 14.8 mph 14.8 mph 75 % 0.0 in 0.0 W/m2 CLR
05:10 9.4 °F 5.2 °F 1029.3 in West 14.8 mph 14.8 mph 75 % 0.0 in 0.0 W/m2 CLR
05:12 9.4 °F 5.2 °F 1029.3 in WNW 20.4 mph 20.4 mph 75 % 0.0 in 0.0 W/m2 CLR
05:16 9.4 °F 5.2 °F 1029.3 in West 13.0 mph 13.0 mph 75 % 0.0 in 0.0 W/m2 CLR
05:21 9.4 °F 5.2 °F 1029.3 in West 18.5 mph 18.5 mph 75 % 0.0 in 0.0 W/m2 CLR
05:22 9.4 °F 5.2 °F 1029.3 in WNW 16.7 mph 16.7 mph 75 % 0.0 in 0.0 W/m2 CLR
05:27 9.4 °F 5.2 °F 1029.7 in NW 11.1 mph 11.1 mph 75 % 0.0 in 0.0 W/m2 CLR
05:29 8.9 °F 4.7 °F 1029.7 in NNW 11.1 mph   75 % 0.0 in 0.0 W/m2 CLR
05:30 8.9 °F 4.7 °F 1029.7 in Calm     75 % 0.0 in 0.0 W/m2 CLR
05:35 8.9 °F 4.7 °F 1029.3 in Calm     75 % 0.0 in 0.0 W/m2 CLR
05:36 8.9 °F 4.7 °F 1029.3 in Calm     75 % 0.0 in 0.0 W/m2 CLR
05:40 8.9 °F 4.9 °F 1029.3 in WNW 11.3 mph 11.3 mph 76 % 0.0 in 0.0 W/m2 CLR
05:41 8.9 °F 4.9 °F 1029.3 in WNW 16.7 mph 16.7 mph 76 % 0.0 in 0.0 W/m2 CLR
05:46 8.9 °F 4.9 °F 1029.3 in WNW 18.5 mph 18.5 mph 76 % 0.0 in 0.0 W/m2 CLR
05:47 8.9 °F 4.9 °F 1029.3 in WNW 18.5 mph 18.5 mph 76 % 0.0 in 0.0 W/m2 CLR
05:52 8.9 °F 4.7 °F 1029.3 in NW 18.5 mph 18.5 mph 75 % 0.0 in 0.0 W/m2 CLR
05:57 9.4 °F 5.2 °F 1029.0 in NW 19.3 mph 19.3 mph 75 % 0.0 in 0.0 W/m2 CLR
06:01 10.0 °F 5.8 °F 1029.3 in NW 24.1 mph 24.1 mph 75 % 0.0 in 0.0 W/m2 CLR
06:03 10.6 °F 6.1 °F 1029.3 in NW 24.1 mph 24.1 mph 74 % 0.0 in 0.0 W/m2 CLR
06:08 11.1 °F 6.8 °F 1029.3 in NW 24.1 mph 24.1 mph 75 % 0.0 in 0.0 W/m2 CLR
06:13 12.2 °F 7.9 °F 1029.7 in NNW 24.1 mph 24.1 mph 75 % 0.0 in 0.0 W/m2 CLR
06:15 12.2 °F 7.7 °F 1029.7 in NNW 22.5 mph 22.5 mph 74 % 0.0 in 0.0 W/m2 CLR
06:18 12.2 °F 7.7 °F 1029.7 in NNW 18.5 mph 18.5 mph 74 % 0.0 in 0.0 W/m2 CLR
06:21 12.2 °F 7.7 °F 1029.7 in NW 16.7 mph 16.7 mph 74 % 0.0 in 0.0 W/m2 CLR
06:23 12.2 °F 7.7 °F 1029.7 in NW 18.5 mph 18.5 mph 74 % 0.0 in 0.0 W/m2 CLR
06:27 12.2 °F 7.9 °F 1029.7 in NW 18.5 mph 18.5 mph 75 % 0.0 in 0.0 W/m2 CLR
06:32 12.2 °F 7.7 °F 1029.7 in WNW 18.5 mph 18.5 mph 74 % 0.0 in 0.0 W/m2 CLR
06:34 12.2 °F 7.7 °F 1029.7 in NW 18.5 mph 18.5 mph 74 % 0.0 in 0.0 W/m2 CLR
06:39 12.2 °F 7.5 °F 1029.7 in NW 16.7 mph 16.7 mph 73 % 0.0 in 0.0 W/m2 CLR
06:41 11.7 °F 6.8 °F 1029.7 in NW 18.5 mph 18.5 mph 72 % 0.0 in 0.0 W/m2 CLR
06:44 11.7 °F 6.8 °F 1029.7 in NW 18.5 mph 18.5 mph 72 % 0.0 in 0.0 W/m2 CLR
06:50 11.1 °F 6.3 °F 1029.7 in NW 18.5 mph 18.5 mph 72 % 0.0 in 0.0 W/m2 CLR
06:51 11.1 °F 6.3 °F 1029.7 in NW 20.4 mph 20.4 mph 72 % 0.0 in 0.0 W/m2 CLR
06:56 11.1 °F 6.3 °F 1029.7 in NW 22.2 mph 22.2 mph 72 % 0.0 in 0.0 W/m2 CLR
06:57 11.1 °F 6.3 °F 1030.0 in NW 20.4 mph 20.4 mph 72 % 0.0 in 0.0 W/m2 CLR
07:06 11.7 °F 6.8 °F 1029.7 in NW 19.3 mph 19.3 mph 72 % 0.0 in 0.0 W/m2 CLR
07:11 12.2 °F 7.3 °F 1029.7 in WNW 18.5 mph 18.5 mph 72 % 0.0 in 0.0 W/m2 CLR
07:16 12.2 °F 7.3 °F 1029.7 in NW 18.5 mph 18.5 mph 72 % 0.0 in 0.0 W/m2 CLR
07:21 12.2 °F 7.3 °F 1029.7 in NW 25.9 mph 25.9 mph 72 % 0.0 in 0.0 W/m2 CLR
07:23 12.2 °F 7.3 °F 1030.0 in NW 20.4 mph 20.4 mph 72 % 0.0 in 0.0 W/m2 CLR
07:24 12.2 °F 7.3 °F 1030.0 in NW 22.2 mph 22.2 mph 72 % 0.0 in 0.0 W/m2 CLR
07:29 12.2 °F 7.3 °F 1030.0 in WNW 16.7 mph 16.7 mph 72 % 0.0 in 0.0 W/m2 CLR
07:30 11.7 °F 6.8 °F 1029.7 in NW 16.7 mph 16.7 mph 72 % 0.0 in 0.0 W/m2 CLR
07:35 11.7 °F 7.0 °F 1030.0 in WNW 18.5 mph 18.5 mph 73 % 0.0 in 0.0 W/m2 CLR
07:36 11.7 °F 7.0 °F 1030.0 in NW 18.5 mph 18.5 mph 73 % 0.0 in 0.0 W/m2 CLR
07:39 11.7 °F 7.0 °F 1029.7 in WNW 18.5 mph 18.5 mph 73 % 0.0 in 0.0 W/m2 CLR
07:41 11.7 °F 7.0 °F 1029.7 in NW 20.9 mph 20.9 mph 73 % 0.0 in 0.0 W/m2 CLR
07:46 12.2 °F 7.5 °F 1029.7 in WNW 18.5 mph 18.5 mph 73 % 0.0 in 0.0 W/m2 CLR
07:48 11.7 °F 7.0 °F 1030.0 in NW 14.8 mph 14.8 mph 73 % 0.0 in 0.0 W/m2 CLR
07:53 11.7 °F 7.0 °F 1029.7 in NW 20.4 mph 20.4 mph 73 % 0.0 in 0.0 W/m2 CLR
07:54 11.7 °F 7.0 °F 1029.7 in NW 20.4 mph 20.4 mph 73 % 0.0 in 0.0 W/m2 CLR
07:59 11.7 °F 7.0 °F 1029.7 in WNW 20.9 mph 20.9 mph 73 % 0.0 in 0.0 W/m2 CLR
08:02 11.7 °F 7.0 °F 1029.7 in WNW 22.2 mph 22.2 mph 73 % 0.0 in 0.0 W/m2 CLR
08:05 11.7 °F 7.0 °F 1029.3 in WNW 20.9 mph 20.9 mph 73 % 0.0 in 0.0 W/m2 CLR
08:09 11.7 °F 7.0 °F 1029.3 in NW 24.1 mph 24.1 mph 73 % 0.0 in 0.0 W/m2 CLR
08:12 11.7 °F 7.0 °F 1029.7 in NW 18.5 mph 18.5 mph 73 % 0.0 in 0.0 W/m2 CLR
08:17 11.1 °F 6.4 °F 1029.7 in NW 14.8 mph 14.8 mph 73 % 0.0 in 0.0 W/m2 OVC
08:18 11.1 °F 6.4 °F 1029.7 in NW 18.5 mph 18.5 mph 73 % 0.0 in 0.0 W/m2 OVC
08:20 11.1 °F 6.4 °F 1029.7 in NW 22.2 mph 22.2 mph 73 % 0.0 in 0.0 W/m2 OVC
08:26 10.6 °F 5.9 °F 1029.7 in NW 20.9 mph 20.9 mph 73 % 0.0 in 0.0 W/m2 OVC
08:32 10.6 °F 5.9 °F 1029.7 in NW 18.5 mph 18.5 mph 73 % 0.0 in 5.0 W/m2 OVC
08:34 10.6 °F 5.9 °F 1029.7 in WNW 18.5 mph 18.5 mph 73 % 0.0 in 5.0 W/m2 OVC
08:39 10.6 °F 5.7 °F 1029.7 in NW 19.3 mph 19.3 mph 72 % 0.0 in 9.0 W/m2 BKN
08:41 10.6 °F 5.7 °F 1029.7 in WNW 22.2 mph 22.2 mph 72 % 0.0 in 11.0 W/m2 BKN
08:45 10.6 °F 5.7 °F 1029.7 in NW 18.5 mph 18.5 mph 72 % 0.0 in 12.0 W/m2 BKN
08:50 10.6 °F 5.7 °F 1029.7 in WNW 18.5 mph 18.5 mph 72 % 0.0 in 16.0 W/m2 BKN
08:55 10.6 °F 5.7 °F 1029.7 in NW 24.1 mph 24.1 mph 72 % 0.0 in 19.0 W/m2 BKN
08:58 10.6 °F 5.5 °F 1029.7 in NW 20.4 mph 20.4 mph 71 % 0.0 in 21.0 W/m2 BKN
09:00 10.6 °F 5.5 °F 1029.7 in WNW 14.8 mph 14.8 mph 71 % 0.0 in 21.0 W/m2 BKN
09:06 10.6 °F 5.5 °F 1029.7 in West 5.6 mph 5.6 mph 71 % 0.0 in 23.0 W/m2 BKN
09:08 10.6 °F 5.5 °F 1029.7 in West 4.8 mph 4.8 mph 71 % 0.0 in 23.0 W/m2 BKN
09:13 10.6 °F 5.7 °F 1029.7 in NW 14.8 mph 14.8 mph 72 % 0.0 in 26.0 W/m2 BKN
09:14 10.6 °F 5.7 °F 1029.7 in West 14.8 mph 14.8 mph 72 % 0.0 in 26.0 W/m2 BKN
09:18 10.0 °F 5.4 °F 1029.7 in WNW 13.0 mph 13.0 mph 73 % 0.0 in 28.0 W/m2 BKN
09:19 10.0 °F 5.4 °F 1029.7 in NW 13.0 mph 13.0 mph 73 % 0.0 in 28.0 W/m2 BKN
09:24 10.0 °F 5.2 °F 1029.7 in WNW 14.8 mph 14.8 mph 72 % 0.0 in 32.0 W/m2 BKN
09:29 9.4 °F 4.8 °F 1030.0 in WNW 14.8 mph 14.8 mph 73 % 0.0 in 35.0 W/m2 BKN
09:30 9.4 °F 4.8 °F 1030.0 in West 17.7 mph 17.7 mph 73 % 0.0 in 35.0 W/m2 BKN
09:35 9.4 °F 4.7 °F 1030.0 in WNW 14.8 mph 14.8 mph 72 % 0.0 in 35.0 W/m2 BKN
09:36 9.4 °F 4.7 °F 1030.0 in NW 13.0 mph 13.0 mph 72 % 0.0 in 35.0 W/m2 BKN
09:37 9.4 °F 4.7 °F 1030.0 in WNW 14.8 mph 14.8 mph 72 % 0.0 in 35.0 W/m2 BKN
09:42 9.4 °F 4.7 °F 1030.0 in WNW 16.7 mph 16.7 mph 72 % 0.0 in 37.0 W/m2 BKN
09:43 9.4 °F 4.7 °F 1030.0 in WNW 16.7 mph 16.7 mph 72 % 0.0 in 37.0 W/m2 BKN
09:49 9.4 °F 4.7 °F 1030.0 in West 13.0 mph 13.0 mph 72 % 0.0 in 39.0 W/m2 BKN
09:54 9.4 °F 4.7 °F 1029.7 in West 16.7 mph 16.7 mph 72 % 0.0 in 40.0 W/m2 BKN
09:57 10.6 °F 5.7 °F 1029.7 in WNW 18.5 mph 18.5 mph 72 % 0.0 in 42.0 W/m2 BKN
10:01 11.1 °F 6.3 °F 1029.7 in WNW 19.3 mph 19.3 mph 72 % 0.0 in 44.0 W/m2 BKN
10:03 11.1 °F 6.3 °F 1029.7 in NW 22.2 mph 22.2 mph 72 % 0.0 in 46.0 W/m2 BKN
10:08 11.7 °F 6.8 °F 1029.7 in NW 20.4 mph 20.4 mph 72 % 0.0 in 49.0 W/m2 SCT
10:13 11.7 °F 6.6 °F 1029.7 in WNW 14.8 mph 14.8 mph 71 % 0.0 in 56.0 W/m2 SCT
10:17 11.7 °F 6.6 °F 1030.0 in NW 22.2 mph 22.2 mph 71 % 0.0 in 60.0 W/m2 SCT
10:20 11.7 °F 6.6 °F 1030.0 in WNW 20.4 mph 20.4 mph 71 % 0.0 in 60.0 W/m2 SCT
10:25 12.2 °F 6.9 °F 1030.0 in WNW 14.8 mph 14.8 mph 70 % 0.0 in 62.0 W/m2 SCT
10:26 12.2 °F 6.9 °F 1030.0 in WNW 14.8 mph 14.8 mph 70 % 0.0 in 63.0 W/m2 SCT
10:28 12.2 °F 6.9 °F 1030.0 in WNW 16.7 mph 16.7 mph 70 % 0.0 in 65.0 W/m2 SCT
10:31 12.8 °F 7.4 °F 1030.0 in WNW 14.8 mph 14.8 mph 70 % 0.0 in 74.0 W/m2 SCT
10:35 12.8 °F 7.4 °F 1030.0 in West 9.3 mph 9.3 mph 70 % 0.0 in 69.0 W/m2 FEW
10:36 13.3 °F 8.0 °F 1030.0 in West 7.4 mph 7.4 mph 70 % 0.0 in 77.0 W/m2 FEW
10:40 13.3 °F 8.0 °F 1030.0 in West 8.0 mph 8.0 mph 70 % 0.0 in 135.0 W/m2 FEW
10:41 13.3 °F 8.0 °F 1030.4 in West 9.7 mph 9.7 mph 70 % 0.0 in 149.0 W/m2 FEW
10:46 13.9 °F 8.5 °F 1030.0 in West 14.8 mph 14.8 mph 70 % 0.0 in 211.0 W/m2 CLR
10:57 14.4 °F 8.6 °F 1030.4 in NW 18.5 mph 18.5 mph 68 % 0.0 in 301.0 W/m2 CLR
10:59 14.4 °F 8.6 °F 1030.4 in NNW 11.1 mph 11.1 mph 68 % 0.0 in 302.0 W/m2 CLR
11:02 14.4 °F 7.9 °F 1030.4 in NNW 18.5 mph 18.5 mph 65 % 0.0 in 258.0 W/m2 CLR
11:07 15.0 °F 8.2 °F 1030.4 in NW 24.1 mph 24.1 mph 64 % 0.0 in 250.0 W/m2 CLR
11:10 15.6 °F 8.6 °F 1030.4 in NNW 24.1 mph 24.1 mph 63 % 0.0 in 260.0 W/m2 CLR
11:15 16.7 °F 9.3 °F 1030.4 in NW 27.8 mph 27.8 mph 62 % 0.0 in 316.0 W/m2 CLR
11:19 17.2 °F 9.6 °F 1030.4 in NW 35.2 mph 35.2 mph 61 % 0.0 in 315.0 W/m2 CLR
11:26 17.8 °F 10.2 °F 1030.4 in NW 24.1 mph 24.1 mph 61 % 0.0 in 320.0 W/m2 CLR
11:27 17.8 °F 9.9 °F 1030.0 in NW 33.8 mph 33.8 mph 60 % 0.0 in 323.0 W/m2 CLR
11:32 17.8 °F 9.9 °F 1030.0 in NW 27.8 mph 27.8 mph 60 % 0.0 in 341.0 W/m2 CLR
11:37 17.8 °F 9.9 °F 1030.4 in North 37.0 mph 37.0 mph 60 % 0.0 in 427.0 W/m2 CLR
11:38 18.3 °F 10.4 °F 1030.4 in North 37.0 mph 37.0 mph 60 % 0.0 in 415.0 W/m2 CLR
11:43 18.3 °F 10.2 °F 1030.4 in NW 42.6 mph 42.6 mph 59 % 0.0 in 387.0 W/m2 CLR
11:44 18.3 °F 10.2 °F 1030.4 in NNW 42.6 mph 42.6 mph 59 % 0.0 in 387.0 W/m2 CLR
11:49 18.3 °F 10.2 °F 1030.0 in NNW 37.0 mph 37.0 mph 59 % 0.0 in 385.0 W/m2 CLR
11:54 18.3 °F 10.2 °F 1030.0 in NNW 54.7 mph 54.7 mph 59 % 0.0 in 369.0 W/m2 CLR
11:55 18.3 °F 10.2 °F 1030.0 in NNW 55.5 mph 55.5 mph 59 % 0.0 in 359.0 W/m2 CLR
12:00 18.3 °F 10.4 °F 1030.0 in NNW 43.4 mph 43.4 mph 60 % 0.0 in 367.0 W/m2 CLR
12:01 18.3 °F 10.2 °F 1030.0 in NNW 42.6 mph 42.6 mph 59 % 0.0 in 373.0 W/m2 CLR
12:03 18.3 °F 10.2 °F 1029.7 in NW 40.7 mph 40.7 mph 59 % 0.0 in 369.0 W/m2 CLR
12:07 18.3 °F 10.2 °F 1029.7 in North 46.3 mph 46.3 mph 59 % 0.0 in 350.0 W/m2 CLR
12:12 18.3 °F 10.4 °F 1029.7 in NNW 48.1 mph 48.1 mph 60 % 0.0 in 392.0 W/m2 CLR
12:17 18.3 °F 10.2 °F 1029.7 in NW 38.9 mph 38.9 mph 59 % 0.0 in 380.0 W/m2 CLR
12:18 18.3 °F 10.2 °F 1029.7 in North 48.1 mph 48.1 mph 59 % 0.0 in 390.0 W/m2 CLR
12:22 18.9 °F 10.7 °F 1029.3 in NNW 40.7 mph 40.7 mph 59 % 0.0 in 401.0 W/m2 CLR
12:24 18.9 °F 10.7 °F 1029.3 in NNW 35.2 mph 35.2 mph 59 % 0.0 in 388.0 W/m2 CLR
12:28 18.9 °F 10.7 °F 1029.3 in NNW 37.0 mph 37.0 mph 59 % 0.0 in 411.0 W/m2 CLR
12:31 18.9 °F 10.7 °F 1029.3 in North 32.2 mph 32.2 mph 59 % 0.0 in 396.0 W/m2 CLR
12:34 18.9 °F 10.7 °F 1029.3 in NNW 35.4 mph 35.4 mph 59 % 0.0 in 380.0 W/m2 CLR
12:39 18.9 °F 10.4 °F 1029.3 in NNW 50.0 mph 50.0 mph 58 % 0.0 in 404.0 W/m2 CLR
12:40 18.9 °F 10.7 °F 1029.3 in North 51.8 mph 51.8 mph 59 % 0.0 in 415.0 W/m2 CLR
12:45 18.9 °F 10.7 °F 1029.3 in North 40.7 mph 40.7 mph 59 % 0.0 in 415.0 W/m2 CLR
12:49 18.9 °F 10.7 °F 1029.3 in NNW 38.9 mph 38.9 mph 59 % 0.0 in 396.0 W/m2 CLR
12:52 19.4 °F 10.9 °F 1029.3 in North 40.7 mph 40.7 mph 58 % 0.0 in 415.0 W/m2 CLR
12:55 19.4 °F 10.9 °F 1029.3 in NNW 38.6 mph 38.6 mph 58 % 0.0 in 411.0 W/m2 CLR
13:00 19.4 °F 10.9 °F 1029.3 in NNW 38.9 mph 38.9 mph 58 % 0.0 in 418.0 W/m2 CLR
13:01 19.4 °F 10.9 °F 1029.3 in North 37.0 mph 37.0 mph 58 % 0.0 in 429.0 W/m2 CLR
13:04 19.4 °F 10.9 °F 1029.0 in NNW 35.2 mph 35.2 mph 58 % 0.0 in 399.0 W/m2 CLR
13:07 19.4 °F 10.9 °F 1029.0 in NNW 33.3 mph 33.3 mph 58 % 0.0 in 378.0 W/m2 CLR
13:12 19.4 °F 10.9 °F 1028.7 in NNW 37.0 mph 37.0 mph 58 % 0.0 in 413.0 W/m2 CLR
13:17 19.4 °F 10.9 °F 1028.3 in NW 33.3 mph 33.3 mph 58 % 0.0 in 417.0 W/m2 CLR
13:20 19.4 °F 10.7 °F 1028.3 in North 35.2 mph 35.2 mph 57 % 0.0 in 406.0 W/m2 CLR
13:26 19.4 °F 10.7 °F 1028.3 in NNW 46.3 mph 46.3 mph 57 % 0.0 in 404.0 W/m2 CLR
13:31 20.0 °F 10.9 °F 1028.7 in North 45.1 mph 45.1 mph 56 % 0.0 in 429.0 W/m2 CLR
13:37 20.0 °F 10.9 °F 1028.7 in North 48.1 mph 48.1 mph 56 % 0.0 in 420.0 W/m2 CLR
13:42 20.0 °F 10.9 °F 1028.7 in North 38.9 mph 38.9 mph 56 % 0.0 in 401.0 W/m2 CLR
13:43 20.0 °F 10.9 °F 1028.3 in North 41.8 mph 41.8 mph 56 % 0.0 in 401.0 W/m2 CLR
13:48 20.0 °F 10.9 °F 1028.3 in NNW 38.9 mph 38.9 mph 56 % 0.0 in 387.0 W/m2 CLR
13:54 20.0 °F 10.9 °F 1028.0 in NNW 51.8 mph 51.8 mph 56 % 0.0 in 385.0 W/m2 CLR
13:58 20.0 °F 10.9 °F 1028.0 in North 50.0 mph 50.0 mph 56 % 0.0 in 366.0 W/m2 CLR
14:00 20.0 °F 10.9 °F 1028.0 in NNW 44.4 mph 44.4 mph 56 % 0.0 in 381.0 W/m2 CLR
14:02 20.0 °F 10.9 °F 1027.7 in NW 31.5 mph 31.5 mph 56 % 0.0 in 380.0 W/m2 CLR
14:06 20.0 °F 10.7 °F 1027.7 in NW 40.7 mph 40.7 mph 55 % 0.0 in 374.0 W/m2 CLR
14:08 20.0 °F 10.7 °F 1028.0 in NW 35.2 mph 35.2 mph 55 % 0.0 in 399.0 W/m2 CLR
14:13 20.0 °F 10.7 °F 1028.0 in North 53.1 mph 53.1 mph 55 % 0.0 in 392.0 W/m2 CLR
14:15 20.0 °F 10.7 °F 1028.0 in North 44.4 mph 44.4 mph 55 % 0.0 in 388.0 W/m2 CLR
14:20 20.0 °F 10.7 °F 1027.7 in North 55.5 mph 55.5 mph 55 % 0.0 in 359.0 W/m2 CLR
14:24 20.0 °F 10.7 °F 1027.7 in North 31.5 mph 31.5 mph 55 % 0.0 in 295.0 W/m2 CLR
14:26 20.0 °F 10.7 °F 1027.7 in NNW 31.5 mph 31.5 mph 55 % 0.0 in 357.0 W/m2 CLR
14:31 20.0 °F 10.7 °F 1027.7 in NW 35.2 mph 35.2 mph 55 % 0.0 in 346.0 W/m2 CLR
14:33 20.0 °F 10.7 °F 1027.7 in North 42.6 mph 42.6 mph 55 % 0.0 in 336.0 W/m2 CLR
14:34 20.0 °F 10.7 °F 1027.7 in NNW 37.0 mph 37.0 mph 55 % 0.0 in 352.0 W/m2 CLR
14:39 20.0 °F 10.7 °F 1027.7 in NNW 42.6 mph 42.6 mph 55 % 0.0 in 355.0 W/m2 CLR
14:45 20.0 °F 10.4 °F 1027.7 in North 40.7 mph 40.7 mph 54 % 0.0 in 345.0 W/m2 CLR
14:47 20.0 °F 10.4 °F 1027.7 in NNW 42.6 mph 42.6 mph 54 % 0.0 in 345.0 W/m2 CLR
14:52 20.0 °F 10.4 °F 1027.7 in NNW 38.9 mph 38.9 mph 54 % 0.0 in 339.0 W/m2 CLR
14:53 20.0 °F 10.4 °F 1027.7 in NNW 38.9 mph 38.9 mph 54 % 0.0 in 332.0 W/m2 CLR
14:56 20.0 °F 10.4 °F 1027.3 in North 35.2 mph 35.2 mph 54 % 0.0 in 332.0 W/m2 CLR
14:58 20.0 °F 10.7 °F 1027.3 in NNW 24.1 mph 24.1 mph 55 % 0.0 in 323.0 W/m2 CLR
15:03 20.0 °F 10.4 °F 1027.3 in NW 38.6 mph 38.6 mph 54 % 0.0 in 316.0 W/m2 CLR
15:04 20.6 °F 10.9 °F 1027.3 in North 38.9 mph 38.9 mph 54 % 0.0 in 316.0 W/m2 CLR
15:09 20.0 °F 10.4 °F 1027.3 in NNW 37.0 mph 37.0 mph 54 % 0.0 in 309.0 W/m2 CLR
15:10 20.0 °F 10.4 °F 1027.3 in North 43.4 mph 43.4 mph 54 % 0.0 in 309.0 W/m2 CLR
15:15 20.0 °F 10.7 °F 1027.3 in North 40.7 mph 40.7 mph 55 % 0.0 in 297.0 W/m2 CLR
15:20 20.0 °F 10.7 °F 1027.3 in North 46.7 mph 46.7 mph 55 % 0.0 in 288.0 W/m2 CLR
15:22 20.0 °F 10.7 °F 1027.7 in North 40.2 mph 40.2 mph 55 % 0.0 in 279.0 W/m2 CLR
15:25 20.0 °F 10.7 °F 1027.7 in NW 35.4 mph 35.4 mph 55 % 0.0 in 267.0 W/m2 CLR
15:27 20.0 °F 10.7 °F 1027.7 in NNW 40.7 mph 40.7 mph 55 % 0.0 in 278.0 W/m2 CLR
15:32 20.0 °F 10.7 °F 1027.7 in NNE 35.2 mph 35.2 mph 55 % 0.0 in 264.0 W/m2 CLR
15:33 20.0 °F 10.7 °F 1027.7 in NNE 35.2 mph 35.2 mph 55 % 0.0 in 267.0 W/m2 CLR
15:38 20.0 °F 10.7 °F 1027.7 in NNW 37.0 mph 37.0 mph 55 % 0.0 in 251.0 W/m2 CLR
15:39 19.4 °F 10.2 °F 1027.7 in NNW 31.5 mph 31.5 mph 55 % 0.0 in 250.0 W/m2 CLR
15:41 19.4 °F 10.2 °F 1027.7 in North 35.2 mph 35.2 mph 55 % 0.0 in 243.0 W/m2 CLR
15:44 19.4 °F 10.2 °F 1027.7 in NNW 42.6 mph 42.6 mph 55 % 0.0 in 218.0 W/m2 CLR
15:48 19.4 °F 10.4 °F 1027.7 in North 38.9 mph 38.9 mph 56 % 0.0 in 232.0 W/m2 CLR
15:50 19.4 °F 10.4 °F 1027.7 in NNW 48.1 mph 48.1 mph 56 % 0.0 in 230.0 W/m2 CLR
15:55 19.4 °F 10.4 °F 1027.7 in NNW 33.3 mph 33.3 mph 56 % 0.0 in 209.0 W/m2 CLR
15:56 19.4 °F 10.4 °F 1027.7 in North 38.6 mph 38.6 mph 56 % 0.0 in 209.0 W/m2 CLR
16:01 19.4 °F 10.4 °F 1027.3 in NW 30.6 mph 30.6 mph 56 % 0.0 in 202.0 W/m2 CLR
16:04 19.4 °F 10.4 °F 1027.7 in NW 33.3 mph 33.3 mph 56 % 0.0 in 192.0 W/m2 CLR
16:09 19.4 °F 10.4 °F 1027.3 in NNW 42.6 mph 42.6 mph 56 % 0.0 in 179.0 W/m2 CLR
16:14 18.9 °F 9.9 °F 1027.3 in NNW 41.8 mph 41.8 mph 56 % 0.0 in 165.0 W/m2 CLR
16:15 18.9 °F 9.9 °F 1027.3 in NW 46.3 mph 46.3 mph 56 % 0.0 in 160.0 W/m2 CLR
16:19 18.9 °F 9.9 °F 1027.3 in NW 38.6 mph 38.6 mph 56 % 0.0 in 151.0 W/m2 CLR
16:22 18.9 °F 9.9 °F 1027.3 in NW 51.8 mph 51.8 mph 56 % 0.0 in 142.0 W/m2 CLR
16:26 18.9 °F 10.2 °F 1027.3 in NNW 40.7 mph 40.7 mph 57 % 0.0 in 135.0 W/m2 CLR
16:31 18.9 °F 10.2 °F 1027.7 in NNW 42.6 mph 42.6 mph 57 % 0.0 in 123.0 W/m2 CLR
16:35 18.9 °F 10.2 °F 1027.7 in NNW 42.6 mph 42.6 mph 57 % 0.0 in 113.0 W/m2 CLR
16:38 18.9 °F 10.2 °F 1027.7 in NW 27.8 mph 27.8 mph 57 % 0.0 in 107.0 W/m2 CLR
16:42 18.3 °F 9.7 °F 1027.7 in North 40.7 mph 40.7 mph 57 % 0.0 in 93.0 W/m2 CLR
16:44 18.3 °F 9.7 °F 1027.7 in NNW 46.3 mph 46.3 mph 57 % 0.0 in 84.0 W/m2 CLR
16:47 18.3 °F 9.9 °F 1027.7 in North 37.0 mph 37.0 mph 58 % 0.0 in 77.0 W/m2 FEW
16:52 18.3 °F 9.9 °F 1027.7 in NW 40.7 mph 40.7 mph 58 % 0.0 in 65.0 W/m2 SCT
16:53 18.3 °F 9.9 °F 1027.7 in NW 40.7 mph 40.7 mph 58 % 0.0 in 63.0 W/m2 SCT
16:54 18.3 °F 9.9 °F 1027.7 in NW 37.0 mph 37.0 mph 58 % 0.0 in 62.0 W/m2 SCT
16:59 18.3 °F 9.9 °F 1027.7 in NNW 31.5 mph 31.5 mph 58 % 0.0 in 54.0 W/m2 SCT
17:00 18.3 °F 9.9 °F 1027.7 in NW 31.5 mph 31.5 mph 58 % 0.0 in 53.0 W/m2 SCT
17:05 17.8 °F 9.7 °F 1027.7 in NW 37.0 mph 37.0 mph 59 % 0.0 in 42.0 W/m2 SCT
17:10 17.8 °F 9.7 °F 1027.7 in NW 29.6 mph 29.6 mph 59 % 0.0 in 33.0 W/m2 BKN
17:13 17.8 °F 9.7 °F 1027.3 in NW 31.5 mph 31.5 mph 59 % 0.0 in 30.0 W/m2 BKN
17:16 17.8 °F 9.7 °F 1027.3 in NNW 33.3 mph 33.3 mph 59 % 0.0 in 26.0 W/m2 BKN
17:21 17.8 °F 9.9 °F 1027.7 in NW 31.5 mph 31.5 mph 60 % 0.0 in 21.0 W/m2 BKN
17:23 17.8 °F 9.9 °F 1027.7 in North 24.1 mph 24.1 mph 60 % 0.0 in 18.0 W/m2 BKN
17:26 17.8 °F 10.2 °F 1027.7 in NW 32.2 mph 32.2 mph 61 % 0.0 in 16.0 W/m2 BKN
17:30 17.8 °F 10.2 °F 1027.7 in NNW 29.6 mph 29.6 mph 61 % 0.0 in 12.0 W/m2 BKN
17:32 17.8 °F 10.2 °F 1027.7 in NW 37.0 mph 37.0 mph 61 % 0.0 in 12.0 W/m2 BKN
17:36 17.2 °F 9.6 °F 1027.7 in NW 35.4 mph 35.4 mph 61 % 0.0 in 9.0 W/m2 BKN
17:37 17.2 °F 9.6 °F 1027.7 in NW 35.2 mph 35.2 mph 61 % 0.0 in 7.0 W/m2 BKN
17:42 17.2 °F 9.9 °F 1027.7 in NNW 27.8 mph 27.8 mph 62 % 0.0 in 5.0 W/m2 OVC
17:43 17.2 °F 9.9 °F 1027.7 in NNW 37.0 mph 37.0 mph 62 % 0.0 in 5.0 W/m2 OVC
17:48 17.2 °F 9.9 °F 1027.3 in NW 32.2 mph 32.2 mph 62 % 0.0 in 5.0 W/m2 OVC
17:49 17.2 °F 9.9 °F 1027.3 in NW 37.0 mph 37.0 mph 62 % 0.0 in 5.0 W/m2 OVC
17:54 17.2 °F 9.9 °F 1027.0 in NW 24.1 mph 24.1 mph 62 % 0.0 in 5.0 W/m2 CLR
17:56 17.2 °F 9.9 °F 1027.0 in NW 37.0 mph 37.0 mph 62 % 0.0 in 5.0 W/m2 CLR
17:58 17.2 °F 10.1 °F 1027.0 in NW 35.2 mph 35.2 mph 63 % 0.0 in 0.0 W/m2 CLR
18:03 17.2 °F 10.1 °F 1027.3 in NW 31.5 mph 31.5 mph 63 % 0.0 in 0.0 W/m2 CLR
18:04 17.2 °F 10.1 °F 1027.3 in WNW 31.5 mph 31.5 mph 63 % 0.0 in 0.0 W/m2 CLR
18:09 17.2 °F 10.1 °F 1027.3 in NW 37.0 mph 37.0 mph 63 % 0.0 in 0.0 W/m2 CLR
18:14 16.7 °F 9.6 °F 1027.3 in NW 33.3 mph 33.3 mph 63 % 0.0 in 0.0 W/m2 CLR
18:19 16.7 °F 9.6 °F 1027.3 in NW 25.9 mph 25.9 mph 63 % 0.0 in 0.0 W/m2 CLR
18:21 16.7 °F 9.8 °F 1027.3 in NNW 29.6 mph 29.6 mph 64 % 0.0 in 0.0 W/m2 CLR
18:26 16.7 °F 9.8 °F 1027.3 in NW 38.9 mph 38.9 mph 64 % 0.0 in 0.0 W/m2 CLR
18:27 16.7 °F 9.8 °F 1027.3 in NNW 38.9 mph 38.9 mph 64 % 0.0 in 0.0 W/m2 CLR
18:28 16.7 °F 9.8 °F 1027.3 in NW 35.2 mph 35.2 mph 64 % 0.0 in 0.0 W/m2 CLR
18:33 16.7 °F 9.8 °F 1027.3 in NW 29.6 mph 29.6 mph 64 % 0.0 in 0.0 W/m2 CLR
18:38 16.7 °F 9.8 °F 1027.3 in NNW 31.5 mph 31.5 mph 64 % 0.0 in 0.0 W/m2 CLR
18:39 16.7 °F 9.8 °F 1027.3 in NNW 27.8 mph 27.8 mph 64 % 0.0 in 0.0 W/m2 CLR
18:45 16.7 °F 10.1 °F 1027.3 in WNW 20.4 mph 20.4 mph 65 % 0.0 in 0.0 W/m2 CLR
18:50 16.1 °F 9.5 °F 1027.3 in NW 19.3 mph 19.3 mph 65 % 0.0 in 0.0 W/m2 CLR
18:52 16.1 °F 9.5 °F 1027.3 in NW 24.1 mph 24.1 mph 65 % 0.0 in 0.0 W/m2 CLR
18:58 16.1 °F 9.5 °F 1027.3 in NW 18.5 mph 18.5 mph 65 % 0.0 in 0.0 W/m2 CLR
19:00 16.1 °F 9.5 °F 1027.3 in WNW 16.7 mph 16.7 mph 65 % 0.0 in 0.0 W/m2 CLR
19:05 16.1 °F 9.8 °F 1027.3 in NW 18.5 mph 18.5 mph 66 % 0.0 in 0.0 W/m2 CLR
19:09 16.1 °F 9.8 °F 1027.7 in NW 18.5 mph 18.5 mph 66 % 0.0 in 0.0 W/m2 CLR
19:10 16.1 °F 9.8 °F 1027.3 in NW 18.5 mph 18.5 mph 66 % 0.0 in 0.0 W/m2 CLR
19:15 15.6 °F 9.2 °F 1027.7 in NNW 22.2 mph 22.2 mph 66 % 0.0 in 0.0 W/m2 CLR
19:20 15.6 °F 9.2 °F 1027.3 in NNW 25.7 mph 25.7 mph 66 % 0.0 in 0.0 W/m2 CLR
19:22 15.6 °F 9.4 °F 1027.7 in NW 24.1 mph 24.1 mph 67 % 0.0 in 0.0 W/m2 CLR
19:26 15.6 °F 9.4 °F 1027.7 in NW 29.6 mph 29.6 mph 67 % 0.0 in 0.0 W/m2 CLR
19:28 15.6 °F 9.4 °F 1027.7 in NNW 27.8 mph 27.8 mph 67 % 0.0 in 0.0 W/m2 CLR
19:31 15.6 °F 9.4 °F 1027.7 in NNW 24.1 mph 24.1 mph 67 % 0.0 in 0.0 W/m2 CLR
19:36 16.1 °F 10.0 °F 1027.7 in NNW 24.1 mph 24.1 mph 67 % 0.0 in 0.0 W/m2 CLR
19:37 16.1 °F 10.0 °F 1027.7 in NNW 33.8 mph 33.8 mph 67 % 0.0 in 0.0 W/m2 CLR
19:42 16.1 °F 10.0 °F 1027.7 in NW 33.3 mph 33.3 mph 67 % 0.0 in 0.0 W/m2 CLR
19:44 16.1 °F 10.0 °F 1027.7 in North 31.5 mph 31.5 mph 67 % 0.0 in 0.0 W/m2 CLR
19:49 16.1 °F 10.0 °F 1027.7 in NNW 31.5 mph 31.5 mph 67 % 0.0 in 0.0 W/m2 CLR
19:53 16.1 °F 10.0 °F 1027.7 in NW 27.4 mph 27.4 mph 67 % 0.0 in 0.0 W/m2 CLR
19:56 15.6 °F 9.4 °F 1027.7 in NNW 22.2 mph 22.2 mph 67 % 0.0 in 0.0 W/m2 CLR
19:59 15.6 °F 9.4 °F 1028.0 in NNW 18.5 mph 18.5 mph 67 % 0.0 in 0.0 W/m2 CLR
20:02 15.6 °F 9.7 °F 1027.7 in NW 22.2 mph 22.2 mph 68 % 0.0 in 0.0 W/m2 CLR
20:07 15.6 °F 9.7 °F 1028.0 in NW 22.2 mph 22.2 mph 68 % 0.0 in 0.0 W/m2 CLR
20:13 15.6 °F 9.4 °F 1028.0 in NNW 20.9 mph 20.9 mph 67 % 0.0 in 0.0 W/m2 CLR
20:18 15.6 °F 9.7 °F 1028.0 in NW 20.9 mph 20.9 mph 68 % 0.0 in 0.0 W/m2 CLR
20:20 15.6 °F 9.7 °F 1028.0 in NW 22.2 mph 22.2 mph 68 % 0.0 in 0.0 W/m2 CLR
20:23 15.6 °F 9.7 °F 1028.0 in NW 18.5 mph 18.5 mph 68 % 0.0 in 0.0 W/m2 CLR
20:25 15.6 °F 9.7 °F 1028.0 in WNW 18.5 mph 18.5 mph 68 % 0.0 in 0.0 W/m2 CLR
20:28 15.6 °F 9.7 °F 1028.0 in NNW 25.7 mph 25.7 mph 68 % 0.0 in 0.0 W/m2 CLR
20:30 15.6 °F 9.7 °F 1028.0 in WNW 22.2 mph 22.2 mph 68 % 0.0 in 0.0 W/m2 CLR
20:36 15.6 °F 9.7 °F 1028.0 in WNW 18.5 mph 18.5 mph 68 % 0.0 in 0.0 W/m2 CLR
20:41 15.0 °F 9.1 °F 1028.0 in WNW 16.7 mph 16.7 mph 68 % 0.0 in 0.0 W/m2 CLR
20:51 15.0 °F 8.9 °F 1028.0 in NW 18.5 mph 18.5 mph 67 % 0.0 in 0.0 W/m2 CLR
20:56 15.0 °F 8.9 °F 1028.0 in NNW 14.8 mph 14.8 mph 67 % 0.0 in 0.0 W/m2 CLR
21:01 15.0 °F 8.9 °F 1028.0 in NW 14.8 mph 14.8 mph 67 % 0.0 in 0.0 W/m2 CLR
21:06 15.0 °F 8.9 °F 1028.0 in WNW 14.8 mph 14.8 mph 67 % 0.0 in 0.0 W/m2 CLR
21:07 15.0 °F 8.9 °F 1028.0 in NW 14.8 mph 14.8 mph 67 % 0.0 in 0.0 W/m2 CLR
21:17 14.4 °F 8.6 °F 1028.0 in WNW 14.8 mph 14.8 mph 68 % 0.0 in 0.0 W/m2 CLR
21:18 14.4 °F 8.6 °F 1028.0 in NW 13.0 mph 13.0 mph 68 % 0.0 in 0.0 W/m2 CLR
21:28 13.3 °F 7.6 °F 1028.3 in WNW 9.7 mph 9.7 mph 68 % 0.0 in 0.0 W/m2 CLR
21:30 13.3 °F 7.6 °F 1028.3 in WNW 7.4 mph 7.4 mph 68 % 0.0 in 0.0 W/m2 CLR
21:34 12.8 °F 7.0 °F 1028.0 in NW 12.9 mph 12.9 mph 68 % 0.0 in 0.0 W/m2 CLR
21:38 12.8 °F 7.0 °F 1028.0 in WNW 3.7 mph 3.7 mph 68 % 0.0 in 0.0 W/m2 CLR
21:39 12.2 °F 6.5 °F 1028.0 in WNW 9.7 mph 9.7 mph 68 % 0.0 in 0.0 W/m2 CLR
21:44 12.2 °F 6.5 °F 1028.0 in WNW 3.7 mph 3.7 mph 68 % 0.0 in 0.0 W/m2 CLR
21:45 12.2 °F 6.5 °F 1028.0 in WNW 3.7 mph   68 % 0.0 in 0.0 W/m2 CLR
21:50 11.7 °F 5.9 °F 1028.0 in Calm     68 % 0.0 in 0.0 W/m2 CLR
21:54 11.1 °F 5.6 °F 1027.7 in Calm     69 % 0.0 in 0.0 W/m2 CLR
21:55 11.1 °F 5.6 °F 1027.7 in Calm     69 % 0.0 in 0.0 W/m2 CLR
22:00 11.1 °F 5.8 °F 1027.7 in Calm     70 % 0.0 in 0.0 W/m2 CLR
22:01 11.1 °F 5.8 °F 1027.7 in Calm     70 % 0.0 in 0.0 W/m2 CLR
22:06 10.6 °F 5.5 °F 1027.7 in Calm     71 % 0.0 in 0.0 W/m2 CLR
22:11 10.0 °F 5.2 °F 1027.7 in WNW 5.6 mph 5.6 mph 72 % 0.0 in 0.0 W/m2 CLR
22:16 9.4 °F 4.7 °F 1027.7 in West 7.4 mph 7.4 mph 72 % 0.0 in 0.0 W/m2 CLR
22:17 9.4 °F 4.7 °F 1027.3 in West 7.4 mph 7.4 mph 72 % 0.0 in 0.0 W/m2 CLR
22:23 9.4 °F 4.7 °F 1027.7 in WNW 18.5 mph 18.5 mph 72 % 0.0 in 0.0 W/m2 CLR
22:24 9.4 °F 4.4 °F 1027.7 in WNW 18.5 mph 18.5 mph 71 % 0.0 in 0.0 W/m2 CLR
22:37 9.4 °F 4.1 °F 1027.7 in WNW 18.5 mph 18.5 mph 69 % 0.0 in 0.0 W/m2 CLR
22:40 9.4 °F 3.8 °F 1027.7 in WNW 13.0 mph 13.0 mph 68 % 0.0 in 0.0 W/m2 CLR
22:41 9.4 °F 3.8 °F 1027.3 in WNW 18.5 mph 18.5 mph 68 % 0.0 in 0.0 W/m2 CLR
22:46 10.0 °F 4.3 °F 1027.7 in NW 22.2 mph 22.2 mph 68 % 0.0 in 0.0 W/m2 CLR
22:47 10.0 °F 4.3 °F 1027.7 in WNW 22.2 mph 22.2 mph 68 % 0.0 in 0.0 W/m2 CLR
22:49 10.6 °F 4.9 °F 1027.3 in WNW 18.5 mph 18.5 mph 68 % 0.0 in 0.0 W/m2 CLR
22:52 11.7 °F 5.9 °F 1027.7 in WNW 18.5 mph 18.5 mph 68 % 0.0 in 0.0 W/m2 CLR
22:58 12.8 °F 7.0 °F 1027.7 in West 22.5 mph 22.5 mph 68 % 0.0 in 0.0 W/m2 CLR
22:59 12.8 °F 7.0 °F 1027.7 in WNW 25.9 mph 25.9 mph 68 % 0.0 in 0.0 W/m2 CLR
23:03 12.8 °F 7.0 °F 1027.3 in WNW 16.7 mph 16.7 mph 68 % 0.0 in 0.0 W/m2 CLR
23:07 12.8 °F 7.0 °F 1027.7 in NW 17.7 mph 17.7 mph 68 % 0.0 in 0.0 W/m2 CLR
23:08 12.8 °F 7.0 °F 1027.7 in WNW 16.7 mph 16.7 mph 68 % 0.0 in 0.0 W/m2 CLR
23:13 12.8 °F 7.0 °F 1027.7 in NW 14.8 mph 14.8 mph 68 % 0.0 in 0.0 W/m2 CLR
23:14 12.8 °F 7.0 °F 1027.7 in WNW 18.5 mph 18.5 mph 68 % 0.0 in 0.0 W/m2 CLR
23:16 13.3 °F 7.6 °F 1027.7 in NW 16.7 mph 16.7 mph 68 % 0.0 in 0.0 W/m2 CLR
23:21 13.3 °F 7.6 °F 1027.7 in NW 20.4 mph 20.4 mph 68 % 0.0 in 0.0 W/m2 CLR
23:23 13.3 °F 7.6 °F 1027.7 in WNW 18.5 mph 18.5 mph 68 % 0.0 in 0.0 W/m2 CLR
23:26 13.3 °F 7.6 °F 1027.7 in WNW 14.8 mph 14.8 mph 68 % 0.0 in 0.0 W/m2 CLR
23:30 13.3 °F 7.6 °F 1027.3 in NW 18.5 mph 18.5 mph 68 % 0.0 in 0.0 W/m2 CLR
23:32 13.3 °F 7.6 °F 1027.7 in WNW 20.9 mph 20.9 mph 68 % 0.0 in 0.0 W/m2 CLR
23:36 13.3 °F 7.3 °F 1027.7 in NW 18.5 mph 18.5 mph 67 % 0.0 in 0.0 W/m2 CLR
23:39 13.3 °F 7.3 °F 1027.7 in WNW 18.5 mph 18.5 mph 67 % 0.0 in 0.0 W/m2 CLR
23:41 13.3 °F 7.3 °F 1027.7 in NW 16.7 mph 16.7 mph 67 % 0.0 in 0.0 W/m2 CLR
23:46 13.3 °F 7.3 °F 1027.7 in WNW 14.8 mph 14.8 mph 67 % 0.0 in 0.0 W/m2 CLR
23:51 13.3 °F 7.3 °F 1027.7 in WNW 14.8 mph 14.8 mph 67 % 0.0 in 0.0 W/m2 CLR
23:57 13.9 °F 8.1 °F 1027.7 in WNW 16.7 mph 16.7 mph 68 % 0.0 in 0.0 W/m2 CLR
Lo Temps de Massalio
Compliments of Weather Underground - 1.5 mb